メインページ
METAR-TAF:

METAR-TAF

空港 :

バマコ, マリ共和国

バマコ・セヌー国際空港

緯度: 12-32N, 経度: 007-57W, 海抜: 380m

現時点の気象観測

当レポートは33分前の23:00(UTC)に作成
無風
気温 31°C
湿度 43%
気圧 1012 hPa
視程10km以上
1,500メートル以下は雲なし、積乱雲なし

METAR: GABS 232300Z 00000KT CAVOK 31/17 Q1012 NOSIG

時間: 23:33 (23:33 UTC)

予報

当レポートは6時間33分前の17:00(UTC)に作成
予報は23日の 18時(UTC)から 24日の 24時(UTC)まで有効
の風 10kt
視程10km以上
高度3000ftの雲はほとんどない
23日の 18時(UTC)から 23日の 21時(UTC)まで一時的に
高度3000ftの雲はほとんどない
高度4000ftの雲はほとんどない, 積乱雲.
激しい雷雨
確率 40% :
23日の 21時(UTC)から 24日の 03時(UTC)まで一時的に
変向風 15kt、最大30ktの突風を伴う
視程: 3000m
高度3000ftの雲は散在している
高度4000ftの雲はほとんどない, 積乱雲.
風塵, 激しい雷雨, 雨

TAF: GABS 231700Z 2318/2424 18010KT 9999 FEW030 TEMPO 2318/2321 TS FEW030 FEW040CB PROB40 TEMPO 2321/2403 VRB15G30KT 3000 BLDU TSRA SCT030 FEW040CB

4,000以上の空港の気象観測と天気予報(METAR報とTAF報)

利用可能な観測所は地図上に黄色い丸と赤い丸で示す。

丸の上にカーソルを重ねると観測所名を参照できる。

次にクリックすると気象観測と天気予報を参照できる。

マップの切り替え:黒色「×」印の緑ボタンをクリックして拡大、「-」印の緑ボタンをクリックして縮小、緑色の三角印をクリックして隣りの地図に切り替え


METAR-TAF: